Terminal Aerodrome Forecast
Issued by NWS

Home | Current Version | Previous Version | Graphics & Text | Print | Product List | Glossary On
Versions: 1 2 3 4 5 6 7 8 9 10 11 12 13
000
FTUS43 KBIS 190535
TAFDIK
TAF
KDIK 190535Z 1906/2006 26010KT P6SM BKN250
     FM190800 27008KT P6SM SCT110 BKN120
     FM191200 30009KT P6SM SCT100 OVC110
     FM191700 27010KT P6SM SCT080 SCT150=

USA.gov is the U.S. government's official web portal to all federal, state and local government web resources and services.